createdAt,value
2019-05-18T00:01:55.548Z,84.92
2019-05-18T00:05:03.563Z,84.98
2019-05-18T00:08:11.561Z,85.69
2019-05-18T00:11:19.428Z,85.55
2019-05-18T00:14:29.015Z,85.55
2019-05-18T00:17:37.449Z,85.03
2019-05-18T00:20:45.525Z,85.04
2019-05-18T00:23:53.546Z,85.04
2019-05-18T00:27:01.536Z,85.80
2019-05-18T00:30:10.245Z,85.29
2019-05-18T00:33:18.605Z,85.29
2019-05-18T00:36:26.535Z,85.36
2019-05-18T00:39:34.929Z,84.81
2019-05-18T00:42:42.893Z,84.81
2019-05-18T00:45:50.765Z,84.65
2019-05-18T00:48:58.543Z,86.35
2019-05-18T00:52:06.526Z,86.07
2019-05-18T00:55:17.568Z,85.70
2019-05-18T00:58:25.594Z,85.73
2019-05-18T01:01:33.612Z,85.73
2019-05-18T01:04:41.568Z,85.83
2019-05-18T01:07:49.555Z,85.87
2019-05-18T01:10:57.576Z,85.78
2019-05-18T01:14:05.570Z,86.12
2019-05-18T01:17:13.553Z,85.91
2019-05-18T01:20:21.539Z,86.12
2019-05-18T01:23:29.559Z,85.84
2019-05-18T01:26:38.681Z,85.85
2019-05-18T01:29:47.449Z,85.85
2019-05-18T01:32:54.307Z,85.63
2019-05-18T01:36:02.264Z,86.02
2019-05-18T01:39:10.390Z,86.35
2019-05-18T01:42:17.522Z,86.04
2019-05-18T01:45:25.572Z,85.93
2019-05-18T01:48:33.836Z,86.12
2019-05-18T01:51:41.631Z,88.21
2019-05-18T01:54:49.731Z,89.26
2019-05-18T01:57:57.528Z,87.38
2019-05-18T02:01:05.764Z,87.23
2019-05-18T02:04:13.909Z,87.23
2019-05-18T02:07:22.079Z,86.93
2019-05-18T02:10:30.093Z,86.84
2019-05-18T02:13:37.876Z,88.04
2019-05-18T02:16:46.042Z,87.66
2019-05-18T02:19:54.269Z,87.98
2019-05-18T02:23:02.528Z,87.16
2019-05-18T02:26:10.597Z,86.96
2019-05-18T02:29:18.550Z,86.83
2019-05-18T02:32:26.583Z,86.63
2019-05-18T02:35:34.590Z,86.71
2019-05-18T02:38:42.516Z,86.42
2019-05-18T02:41:50.547Z,86.42
2019-05-18T02:44:58.552Z,86.00
2019-05-18T02:48:06.541Z,86.64
2019-05-18T02:51:14.617Z,86.68
2019-05-18T02:54:22.674Z,86.88
2019-05-18T02:57:32.260Z,86.88
2019-05-18T03:00:40.294Z,86.90
2019-05-18T03:03:48.563Z,86.92
2019-05-18T03:06:56.388Z,86.80
2019-05-18T03:10:04.911Z,86.64
2019-05-18T03:13:12.993Z,86.64
2019-05-18T03:16:21.243Z,87.24
2019-05-18T03:19:29.305Z,86.62
2019-05-18T03:22:37.533Z,87.14
2019-05-18T03:25:45.644Z,86.67
2019-05-18T03:28:53.570Z,88.40
2019-05-18T03:32:01.539Z,88.40
2019-05-18T03:35:09.539Z,87.82
2019-05-18T03:38:17.404Z,87.42
2019-05-18T03:41:26.252Z,87.42
2019-05-18T03:44:34.122Z,87.26
2019-05-18T03:47:42.233Z,86.99
2019-05-18T03:50:50.539Z,87.03
2019-05-18T03:53:58.581Z,86.58
2019-05-18T03:57:06.632Z,86.39
2019-05-18T04:00:14.569Z,86.07
2019-05-18T04:03:22.754Z,85.67
2019-05-18T04:06:31.242Z,85.67
2019-05-18T04:09:39.559Z,85.65
2019-05-18T04:12:47.555Z,85.29
2019-05-18T04:15:55.508Z,86.63
2019-05-18T04:19:03.449Z,85.98
2019-05-18T04:22:10.374Z,85.98
2019-05-18T04:25:18.559Z,85.24
2019-05-18T04:28:26.857Z,84.40
2019-05-18T04:31:34.620Z,84.40
2019-05-18T04:34:42.560Z,84.49
2019-05-18T04:37:50.563Z,84.09
2019-05-18T04:40:58.535Z,84.93
2019-05-18T04:44:06.544Z,86.46
2019-05-18T04:47:14.547Z,84.95
2019-05-18T04:50:22.564Z,84.72
2019-05-18T04:53:30.916Z,83.86
2019-05-18T04:56:42.700Z,83.86
2019-05-18T04:59:49.017Z,84.41
2019-05-18T05:02:56.913Z,85.07
2019-05-18T05:06:05.259Z,85.26
2019-05-18T05:09:13.599Z,83.73
2019-05-18T05:12:21.915Z,82.89
2019-05-18T05:15:31.543Z,82.89
2019-05-18T05:18:40.320Z,83.83
2019-05-18T05:21:50.273Z,83.83
2019-05-18T05:24:58.564Z,84.23
2019-05-18T05:28:06.660Z,84.83
2019-05-18T05:31:14.647Z,84.83
2019-05-18T05:34:22.561Z,85.72
2019-05-18T05:37:30.649Z,80.72
2019-05-18T05:40:38.612Z,80.72
2019-05-18T05:43:46.582Z,79.37
2019-05-18T05:46:54.533Z,78.72
2019-05-18T05:50:03.518Z,78.59
2019-05-18T05:53:13.244Z,78.59
2019-05-18T05:56:21.533Z,77.30
2019-05-18T05:59:29.544Z,80.30
2019-05-18T06:02:37.904Z,77.98
2019-05-18T06:05:45.014Z,77.98
2019-05-18T06:08:52.059Z,73.46
2019-05-18T06:11:58.852Z,71.09
2019-05-18T06:15:06.303Z,66.78
2019-05-18T06:18:13.370Z,63.92
2019-05-18T06:21:20.354Z,61.03
2019-05-18T06:24:27.383Z,59.00
2019-05-18T06:27:37.252Z,57.29
2019-05-18T06:30:44.242Z,55.65
2019-05-18T06:33:50.959Z,53.82
2019-05-18T06:36:57.814Z,53.28
2019-05-18T06:40:05.423Z,50.96
2019-05-18T06:43:12.371Z,50.09
2019-05-18T06:46:21.573Z,48.34
2019-05-18T06:49:29.373Z,47.94
2019-05-18T06:52:36.488Z,47.94
2019-05-18T06:55:44.646Z,44.81
2019-05-18T06:58:52.538Z,46.78
2019-05-18T07:02:01.728Z,45.48
2019-05-18T07:05:09.560Z,45.48
2019-05-18T07:08:17.537Z,44.43
2019-05-18T07:11:25.535Z,46.65
2019-05-18T07:14:34.520Z,43.17
2019-05-18T07:17:43.585Z,43.17
2019-05-18T07:20:51.977Z,40.73
2019-05-18T07:23:59.630Z,40.73
2019-05-18T07:27:07.640Z,44.74
2019-05-18T07:30:16.079Z,43.01
2019-05-18T07:33:24.258Z,42.70
2019-05-18T07:36:32.587Z,47.73
2019-05-18T07:39:40.915Z,46.98
2019-05-18T07:42:48.760Z,47.24
2019-05-18T07:45:56.562Z,46.34
2019-05-18T07:49:04.585Z,43.03
2019-05-18T07:52:12.529Z,43.03
2019-05-18T07:55:20.583Z,40.74
2019-05-18T07:58:28.611Z,40.74
2019-05-18T08:01:37.276Z,44.47
2019-05-18T08:04:46.107Z,44.47
2019-05-18T08:07:53.933Z,40.27
2019-05-18T08:11:02.390Z,39.51
2019-05-18T08:14:10.506Z,45.47
2019-05-18T08:17:17.472Z,41.73
2019-05-18T08:20:25.608Z,42.09
2019-05-18T08:23:33.561Z,38.48
2019-05-18T08:26:41.578Z,43.45
2019-05-18T08:29:50.278Z,45.47
2019-05-18T08:32:58.287Z,45.47
2019-05-18T08:36:06.572Z,38.17
2019-05-18T08:39:14.548Z,39.40
2019-05-18T08:42:22.541Z,39.46
2019-05-18T08:45:30.520Z,40.27
2019-05-18T08:48:39.250Z,36.87
2019-05-18T08:51:49.956Z,36.87
2019-05-18T08:54:57.841Z,38.21
2019-05-18T08:58:06.227Z,40.17
2019-05-18T09:01:14.603Z,42.09
2019-05-18T09:04:22.538Z,41.96
2019-05-18T09:07:31.252Z,40.52
2019-05-18T09:10:39.597Z,40.52
2019-05-18T09:13:48.539Z,40.95
2019-05-18T09:16:56.583Z,39.24
2019-05-18T09:20:04.797Z,36.19
2019-05-18T09:23:12.723Z,36.19
2019-05-18T09:26:20.845Z,40.30
2019-05-18T09:29:28.741Z,36.88
2019-05-18T09:32:36.907Z,35.33
2019-05-18T09:35:44.617Z,35.71
2019-05-18T09:38:52.643Z,32.37
2019-05-18T09:42:00.667Z,33.09
2019-05-18T09:45:08.852Z,33.09
2019-05-18T09:48:16.650Z,33.61
2019-05-18T09:51:24.672Z,31.22
2019-05-18T09:54:32.824Z,34.25
2019-05-18T09:57:40.652Z,33.35
2019-05-18T10:00:50.270Z,32.89
2019-05-18T10:03:58.571Z,36.86
2019-05-18T10:07:06.509Z,37.12
2019-05-18T10:10:14.546Z,37.12
2019-05-18T10:13:22.500Z,32.62
2019-05-18T10:16:30.643Z,32.62
2019-05-18T10:19:39.094Z,30.53
2019-05-18T10:22:59.252Z,30.53
2019-05-18T10:25:55.683Z,32.23
2019-05-18T10:29:03.907Z,31.71
2019-05-18T10:32:11.773Z,33.89
2019-05-18T10:35:21.266Z,34.95
2019-05-18T10:38:29.420Z,33.28
2019-05-18T10:41:38.245Z,31.64
2019-05-18T10:44:46.531Z,31.00
2019-05-18T10:47:54.575Z,33.63
2019-05-18T10:51:05.400Z,28.87
2019-05-18T10:54:12.307Z,28.87
2019-05-18T10:57:21.544Z,26.85
2019-05-18T11:00:29.899Z,27.43
2019-05-18T11:03:39.855Z,27.43
2019-05-18T11:06:47.618Z,28.55
2019-05-18T11:09:55.597Z,27.02
2019-05-18T11:13:03.611Z,28.30
2019-05-18T11:16:11.838Z,28.30
2019-05-18T11:19:19.647Z,28.64
2019-05-18T11:22:27.590Z,27.32
2019-05-18T11:25:35.514Z,27.65
2019-05-18T11:28:43.542Z,28.44
2019-05-18T11:31:51.550Z,28.47
2019-05-18T11:34:59.586Z,28.84
2019-05-18T11:38:07.900Z,28.84
2019-05-18T11:41:15.889Z,28.88
2019-05-18T11:44:23.652Z,33.51
2019-05-18T11:47:31.614Z,33.30
2019-05-18T11:50:39.551Z,34.26
2019-05-18T11:53:57.886Z,33.54
2019-05-18T11:56:57.559Z,33.54
2019-05-18T12:00:09.236Z,34.41
2019-05-18T12:03:17.575Z,34.85
2019-05-18T12:06:25.584Z,34.12
2019-05-18T12:09:33.576Z,32.85
2019-05-18T12:12:41.590Z,33.14
2019-05-18T12:15:51.103Z,32.67
2019-05-18T12:18:59.579Z,32.67
2019-05-18T12:22:07.558Z,31.48
2019-05-18T12:25:16.527Z,31.48
2019-05-18T12:28:26.384Z,32.37
2019-05-18T12:31:33.705Z,32.37
2019-05-18T12:34:44.941Z,32.57
2019-05-18T12:37:52.506Z,32.57
2019-05-18T12:41:01.581Z,29.41
2019-05-18T12:44:09.752Z,30.79
2019-05-18T12:47:18.583Z,30.79
2019-05-18T12:50:26.597Z,33.26
2019-05-18T12:53:34.888Z,33.26
2019-05-18T12:56:43.509Z,33.25
2019-05-18T12:59:51.590Z,33.65
2019-05-18T13:03:00.516Z,34.29
2019-05-18T13:06:08.688Z,34.29
2019-05-18T13:09:16.898Z,31.36
2019-05-18T13:12:25.196Z,31.58
2019-05-18T13:15:33.547Z,33.07
2019-05-18T13:18:42.538Z,32.43
2019-05-18T13:21:50.696Z,32.82
2019-05-18T13:24:58.626Z,32.82
2019-05-18T13:28:07.217Z,31.66
2019-05-18T13:31:15.588Z,31.68
2019-05-18T13:34:23.587Z,35.23
2019-05-18T13:37:31.896Z,35.23
2019-05-18T13:40:41.255Z,34.94
2019-05-18T13:43:49.622Z,34.33
2019-05-18T13:46:57.599Z,31.57
2019-05-18T13:50:06.251Z,31.57
2019-05-18T13:53:14.570Z,31.87
2019-05-18T13:56:22.599Z,29.97
2019-05-18T13:59:31.276Z,30.21
2019-05-18T14:02:43.051Z,30.21
2019-05-18T14:05:51.552Z,29.13
2019-05-18T14:08:59.568Z,29.37
2019-05-18T14:12:07.505Z,31.58
2019-05-18T14:15:15.956Z,31.58
2019-05-18T14:18:24.531Z,32.37
2019-05-18T14:21:35.303Z,32.06
2019-05-18T14:24:43.537Z,31.67
2019-05-18T14:27:50.492Z,31.58
2019-05-18T14:30:59.027Z,31.58
2019-05-18T14:34:07.466Z,33.06
2019-05-18T14:37:15.521Z,34.79
2019-05-18T14:40:23.916Z,34.63
2019-05-18T14:43:32.939Z,34.63
2019-05-18T14:46:40.766Z,34.57
2019-05-18T14:49:49.185Z,34.77
2019-05-18T14:52:57.267Z,34.91
2019-05-18T14:56:05.635Z,34.05
2019-05-18T14:59:13.643Z,36.25
2019-05-18T15:02:21.613Z,37.85
2019-05-18T15:05:30.532Z,35.87
2019-05-18T15:08:38.665Z,36.43
2019-05-18T15:11:47.252Z,37.01
2019-05-18T15:14:55.529Z,38.08
2019-05-18T15:18:03.812Z,38.84
2019-05-18T15:21:12.117Z,38.84
2019-05-18T15:24:20.606Z,40.43
2019-05-18T15:27:29.029Z,41.64
2019-05-18T15:30:37.245Z,41.64
2019-05-18T15:33:45.594Z,42.11
2019-05-18T15:36:53.544Z,41.85
2019-05-18T15:40:03.331Z,43.21
2019-05-18T15:43:10.319Z,43.21
2019-05-18T15:46:19.752Z,44.21
2019-05-18T15:49:28.271Z,43.78
2019-05-18T15:52:36.268Z,43.58
2019-05-18T15:55:45.278Z,43.24
2019-05-18T15:58:53.715Z,43.35
2019-05-18T16:02:06.117Z,44.47
2019-05-18T16:05:10.745Z,43.61
2019-05-18T16:08:19.253Z,45.01
2019-05-18T16:11:27.387Z,44.98
2019-05-18T16:14:34.564Z,45.11
2019-05-18T16:17:42.529Z,47.83
2019-05-18T16:20:50.904Z,49.66
2019-05-18T16:23:59.560Z,49.66
2019-05-18T16:27:08.671Z,52.52
2019-05-18T16:30:17.433Z,52.52
2019-05-18T16:33:24.287Z,52.77
2019-05-18T16:36:33.259Z,52.62
2019-05-18T16:39:41.575Z,52.08
2019-05-18T16:42:49.905Z,52.40
2019-05-18T16:45:58.256Z,52.40
2019-05-18T16:49:06.737Z,51.42
2019-05-18T16:52:15.093Z,52.12
2019-05-18T16:55:23.517Z,56.94
2019-05-18T16:58:32.982Z,63.50
2019-05-18T17:01:40.930Z,63.50
2019-05-18T17:04:50.257Z,67.18
2019-05-18T17:07:58.543Z,67.66
2019-05-18T17:11:06.640Z,73.62
2019-05-18T17:14:15.254Z,73.62
2019-05-18T17:17:24.099Z,72.21
2019-05-18T17:20:32.339Z,70.82
2019-05-18T17:23:42.629Z,77.75
2019-05-18T17:26:53.414Z,84.60
2019-05-18T17:30:02.338Z,86.78
2019-05-18T17:33:10.581Z,84.25
2019-05-18T17:36:19.688Z,90.89
2019-05-18T17:39:28.250Z,90.89
2019-05-18T17:42:39.640Z,84.09
2019-05-18T17:45:51.343Z,89.82
2019-05-18T17:48:59.751Z,89.82
2019-05-18T17:52:07.662Z,78.26
2019-05-18T17:55:16.460Z,75.83
2019-05-18T17:58:28.764Z,78.20
2019-05-18T18:02:39.454Z,100.00
2019-05-18T18:05:47.620Z,78.20
2019-05-18T18:08:58.844Z,76.91
